createdAt,value
2018-12-04T00:00:30.705Z,999.69
2018-12-04T00:01:30.672Z,999.67
2018-12-04T00:02:30.692Z,999.71
2018-12-04T00:03:30.705Z,999.70
2018-12-04T00:04:30.720Z,999.74
2018-12-04T00:05:30.740Z,999.78
2018-12-04T00:06:30.757Z,999.81
2018-12-04T00:07:30.772Z,999.82
2018-12-04T00:08:30.790Z,999.88
2018-12-04T00:09:30.806Z,999.92
2018-12-04T00:10:30.824Z,999.98
2018-12-04T00:11:30.837Z,999.97
2018-12-04T00:12:30.870Z,1000.00
2018-12-04T00:13:30.870Z,1000.06
2018-12-04T00:14:30.891Z,1000.06
2018-12-04T00:15:30.903Z,1000.10
2018-12-04T00:16:30.920Z,1000.11
2018-12-04T00:17:30.939Z,1000.23
2018-12-04T00:18:30.954Z,1000.21
2018-12-04T00:19:30.969Z,1000.25
2018-12-04T00:20:30.988Z,1000.28
2018-12-04T00:21:31.004Z,1000.29
2018-12-04T00:22:31.022Z,1000.36
2018-12-04T00:23:31.039Z,1000.37
2018-12-04T00:24:31.058Z,1000.38
2018-12-04T00:25:31.073Z,1000.41
2018-12-04T00:26:31.089Z,1000.46
2018-12-04T00:27:31.103Z,1000.50
2018-12-04T00:28:31.121Z,1000.54
2018-12-04T00:29:31.139Z,1000.56
2018-12-04T00:30:31.155Z,1000.56
2018-12-04T00:31:31.171Z,1000.62
2018-12-04T00:32:31.189Z,1000.63
2018-12-04T00:33:31.202Z,1000.64
2018-12-04T00:34:31.221Z,1000.72
2018-12-04T00:35:31.235Z,1000.73
2018-12-04T00:36:31.254Z,1000.75
2018-12-04T00:37:31.269Z,1000.76
2018-12-04T00:38:31.286Z,1000.81
2018-12-04T00:39:31.302Z,1000.79
2018-12-04T00:40:31.320Z,1000.80
2018-12-04T00:41:31.338Z,1000.85
2018-12-04T00:42:31.352Z,1000.87
2018-12-04T00:43:31.368Z,1000.86
2018-12-04T00:44:31.385Z,1000.92
2018-12-04T00:45:31.404Z,1000.91
2018-12-04T00:46:31.419Z,1000.94
2018-12-04T00:47:31.479Z,1000.95
2018-12-04T00:48:31.451Z,1000.97
2018-12-04T00:49:31.468Z,1001.00
2018-12-04T00:50:31.494Z,1001.03
2018-12-04T00:51:31.504Z,1001.03
2018-12-04T00:52:31.527Z,1001.06
2018-12-04T00:53:31.535Z,1001.07
2018-12-04T00:54:31.557Z,1001.09
2018-12-04T00:55:31.568Z,1001.12
2018-12-04T00:56:31.587Z,1001.16
2018-12-04T00:57:31.604Z,1001.18
2018-12-04T00:58:31.618Z,1001.21
2018-12-04T00:59:31.636Z,1001.24
2018-12-04T01:00:31.651Z,1001.30
2018-12-04T01:01:31.668Z,1001.38
2018-12-04T01:02:31.685Z,1001.42
2018-12-04T01:03:31.700Z,1001.41
2018-12-04T01:04:31.798Z,1001.46
2018-12-04T01:05:31.736Z,1001.51
2018-12-04T01:06:31.753Z,1001.59
2018-12-04T01:07:31.767Z,1001.55
2018-12-04T01:08:31.788Z,1001.60
2018-12-04T01:09:31.803Z,1001.58
2018-12-04T01:10:31.819Z,1001.62
2018-12-04T01:11:31.861Z,1001.65
2018-12-04T01:12:31.852Z,1001.67
2018-12-04T01:13:31.867Z,1001.71
2018-12-04T01:14:31.884Z,1001.73
2018-12-04T01:15:31.900Z,1001.75
2018-12-04T01:16:31.917Z,1001.85
2018-12-04T01:17:31.934Z,1001.87
2018-12-04T01:18:31.957Z,1001.91
2018-12-04T01:19:31.970Z,1001.95
2018-12-04T01:20:31.983Z,1001.96
2018-12-04T01:21:32.002Z,1001.96
2018-12-04T01:22:32.017Z,1002.03
2018-12-04T01:23:32.035Z,1002.06
2018-12-04T01:24:32.050Z,1002.11
2018-12-04T01:25:32.066Z,1002.15
2018-12-04T01:26:32.086Z,1002.22
2018-12-04T01:27:32.102Z,1002.24
2018-12-04T01:28:32.116Z,1002.31
2018-12-04T01:29:32.135Z,1002.32
2018-12-04T01:30:32.150Z,1002.40
2018-12-04T01:31:32.167Z,1002.46
2018-12-04T01:32:32.182Z,1002.45
2018-12-04T01:33:32.200Z,1002.57
2018-12-04T01:34:32.215Z,1002.59
2018-12-04T01:35:32.233Z,1002.70
2018-12-04T01:36:32.249Z,1002.71
2018-12-04T01:37:32.267Z,1002.74
2018-12-04T01:38:32.282Z,1002.76
2018-12-04T01:39:32.303Z,1002.82
2018-12-04T01:40:32.317Z,1002.83
2018-12-04T01:41:32.331Z,1002.85
2018-12-04T01:42:32.350Z,1002.84
2018-12-04T01:43:32.363Z,1002.90
2018-12-04T01:44:32.382Z,1002.89
2018-12-04T01:45:32.399Z,1002.89
2018-12-04T01:46:32.415Z,1002.91
2018-12-04T01:47:32.429Z,1002.94
2018-12-04T01:48:32.449Z,1002.94
2018-12-04T01:49:32.468Z,1003.00
2018-12-04T01:50:32.482Z,1002.97
2018-12-04T01:51:32.496Z,1002.94
2018-12-04T01:52:32.514Z,1002.96
2018-12-04T01:53:32.531Z,1002.94
2018-12-04T01:54:32.546Z,1003.01
2018-12-04T01:55:32.564Z,1003.04
2018-12-04T01:56:32.584Z,1003.12
2018-12-04T01:57:32.599Z,1003.15
2018-12-04T01:58:32.612Z,1003.16
2018-12-04T01:59:32.628Z,1003.19
2018-12-04T02:00:32.646Z,1003.23
2018-12-04T02:01:32.664Z,1003.27
2018-12-04T02:02:32.682Z,1003.27
2018-12-04T02:03:32.697Z,1003.31
2018-12-04T02:04:32.712Z,1003.34
2018-12-04T02:05:32.728Z,1003.34
2018-12-04T02:06:33.946Z,1003.30
2018-12-04T02:07:32.762Z,1003.32
2018-12-04T02:08:32.779Z,1003.34
2018-12-04T02:09:32.796Z,1003.35
2018-12-04T02:10:32.810Z,1003.37
2018-12-04T02:11:32.830Z,1003.38
2018-12-04T02:12:32.843Z,1003.43
2018-12-04T02:13:32.859Z,1003.46
2018-12-04T02:14:32.879Z,1003.44
2018-12-04T02:15:32.896Z,1003.52
2018-12-04T02:16:32.910Z,1003.53
2018-12-04T02:17:32.930Z,1003.53
2018-12-04T02:18:32.944Z,1003.57
2018-12-04T02:19:32.959Z,1003.64
2018-12-04T02:20:32.976Z,1003.64
2018-12-04T02:21:32.996Z,1003.65
2018-12-04T02:22:33.010Z,1003.66
2018-12-04T02:23:33.026Z,1003.69
2018-12-04T02:24:33.042Z,1003.74
2018-12-04T02:25:33.059Z,1003.78
2018-12-04T02:26:33.076Z,1003.82
2018-12-04T02:27:33.092Z,1003.83
2018-12-04T02:28:33.108Z,1003.87
2018-12-04T02:29:33.128Z,1003.95
2018-12-04T02:30:33.148Z,1003.91
2018-12-04T02:31:33.158Z,1003.96
2018-12-04T02:32:33.177Z,1003.96
2018-12-04T02:33:33.191Z,1003.98
2018-12-04T02:34:33.216Z,1003.95
2018-12-04T02:35:33.225Z,1003.94
2018-12-04T02:36:33.243Z,1004.00
2018-12-04T02:37:33.270Z,1004.04
2018-12-04T02:38:33.279Z,1004.07
2018-12-04T02:39:33.295Z,1004.14
2018-12-04T02:40:33.308Z,1004.14
2018-12-04T02:41:33.329Z,1004.11
2018-12-04T02:42:33.344Z,1004.17
2018-12-04T02:43:33.368Z,1004.20
2018-12-04T02:44:33.375Z,1004.22
2018-12-04T02:45:33.399Z,1004.29
2018-12-04T02:46:33.411Z,1004.30
2018-12-04T02:47:33.427Z,1004.30
2018-12-04T02:48:33.443Z,1004.32
2018-12-04T02:49:33.459Z,1004.36
2018-12-04T02:50:33.481Z,1004.31
2018-12-04T02:51:33.494Z,1004.36
2018-12-04T02:52:33.513Z,1004.42
2018-12-04T02:53:33.526Z,1004.45
2018-12-04T02:54:33.545Z,1004.45
2018-12-04T02:55:33.560Z,1004.50
2018-12-04T02:56:33.578Z,1004.56
2018-12-04T02:57:33.596Z,1004.57
2018-12-04T02:58:33.610Z,1004.55
2018-12-04T02:59:33.629Z,1004.56
2018-12-04T03:00:33.643Z,1004.56
2018-12-04T03:01:33.660Z,1004.60
2018-12-04T03:02:33.676Z,1004.64
2018-12-04T03:03:33.694Z,1004.63
2018-12-04T03:04:33.776Z,1004.63
2018-12-04T03:05:33.732Z,1004.67
2018-12-04T03:06:33.747Z,1004.65
2018-12-04T03:07:33.761Z,1004.66
2018-12-04T03:08:33.783Z,1004.71
2018-12-04T03:09:33.797Z,1004.70
2018-12-04T03:10:33.811Z,1004.72
2018-12-04T03:11:33.831Z,1004.76
2018-12-04T03:12:33.846Z,1004.75
2018-12-04T03:13:33.862Z,1004.78
2018-12-04T03:14:33.881Z,1004.79
2018-12-04T03:15:33.902Z,1004.78
2018-12-04T03:16:33.913Z,1004.78
2018-12-04T03:17:33.934Z,1004.84
2018-12-04T03:18:33.952Z,1004.79
2018-12-04T03:19:33.962Z,1004.85
2018-12-04T03:20:33.979Z,1004.84
2018-12-04T03:21:33.995Z,1004.86
2018-12-04T03:22:34.012Z,1004.86
2018-12-04T03:23:34.028Z,1004.90
2018-12-04T03:24:34.045Z,1004.94
2018-12-04T03:25:34.061Z,1004.96
2018-12-04T03:26:34.078Z,1004.98
2018-12-04T03:27:34.097Z,1005.04
2018-12-04T03:28:34.112Z,1005.04
2018-12-04T03:29:34.137Z,1005.03
2018-12-04T03:30:34.150Z,1005.03
2018-12-04T03:31:34.163Z,1005.05
2018-12-04T03:32:34.178Z,1005.08
2018-12-04T03:33:34.215Z,1005.12
2018-12-04T03:34:34.261Z,1005.09
2018-12-04T03:35:34.229Z,1005.16
2018-12-04T03:36:34.244Z,1005.15
2018-12-04T03:37:34.261Z,1005.11
2018-12-04T03:38:34.281Z,1005.18
2018-12-04T03:39:34.300Z,1005.16
2018-12-04T03:40:34.310Z,1005.19
2018-12-04T03:41:34.331Z,1005.17
2018-12-04T03:42:34.344Z,1005.21
2018-12-04T03:43:34.362Z,1005.25
2018-12-04T03:44:34.379Z,1005.24
2018-12-04T03:45:34.398Z,1005.24
2018-12-04T03:46:34.414Z,1005.27
2018-12-04T03:47:34.426Z,1005.28
2018-12-04T03:48:34.446Z,1005.30
2018-12-04T03:49:34.469Z,1005.38
2018-12-04T03:50:34.479Z,1005.37
2018-12-04T03:51:34.495Z,1005.39
2018-12-04T03:52:34.512Z,1005.39
2018-12-04T03:53:34.529Z,1005.48
2018-12-04T03:54:34.547Z,1005.47
2018-12-04T03:55:34.560Z,1005.46
2018-12-04T03:56:34.579Z,1005.50
2018-12-04T03:57:34.592Z,1005.51
2018-12-04T03:58:34.610Z,1005.51
2018-12-04T03:59:34.627Z,1005.50
2018-12-04T04:00:34.645Z,1005.54
2018-12-04T04:01:34.662Z,1005.54
2018-12-04T04:02:34.682Z,1005.56
2018-12-04T04:03:34.694Z,1005.56
2018-12-04T04:04:34.711Z,1005.59
2018-12-04T04:05:34.728Z,1005.60
2018-12-04T04:06:34.746Z,1005.56
2018-12-04T04:07:34.759Z,1005.61
2018-12-04T04:08:34.776Z,1005.60
2018-12-04T04:09:34.795Z,1005.64
2018-12-04T04:10:34.812Z,1005.60
2018-12-04T04:11:34.827Z,1005.60
2018-12-04T04:12:34.842Z,1005.63
2018-12-04T04:13:34.860Z,1005.70
2018-12-04T04:14:34.881Z,1005.75
2018-12-04T04:15:34.891Z,1005.75
2018-12-04T04:16:34.911Z,1005.79
2018-12-04T04:17:34.928Z,1005.82
2018-12-04T04:18:34.942Z,1005.80
2018-12-04T04:19:34.959Z,1005.84
2018-12-04T04:20:34.975Z,1005.84
2018-12-04T04:21:34.993Z,1005.84
2018-12-04T04:22:35.008Z,1005.83
2018-12-04T04:23:35.024Z,1005.88
2018-12-04T04:24:35.040Z,1005.87
2018-12-04T04:25:35.057Z,1005.94
2018-12-04T04:26:35.074Z,1005.93
2018-12-04T04:27:35.092Z,1005.99
2018-12-04T04:28:35.109Z,1006.03
2018-12-04T04:29:35.126Z,1006.04
2018-12-04T04:30:35.143Z,1006.08
2018-12-04T04:31:35.160Z,1006.12
2018-12-04T04:32:35.176Z,1006.15
2018-12-04T04:33:35.189Z,1006.13
2018-12-04T04:34:35.205Z,1006.13
2018-12-04T04:35:35.221Z,1006.19
2018-12-04T04:36:35.246Z,1006.23
2018-12-04T04:37:35.257Z,1006.20
2018-12-04T04:38:35.274Z,1006.26
2018-12-04T04:39:35.287Z,1006.25
2018-12-04T04:40:35.305Z,1006.29
2018-12-04T04:41:35.324Z,1006.32
2018-12-04T04:42:35.339Z,1006.34
2018-12-04T04:43:35.358Z,1006.38
2018-12-04T04:44:35.369Z,1006.37
2018-12-04T04:45:35.391Z,1006.40
2018-12-04T04:46:35.401Z,1006.45
2018-12-04T04:47:35.424Z,1006.43
2018-12-04T04:48:35.436Z,1006.44
2018-12-04T04:49:35.450Z,1006.41
2018-12-04T04:50:35.469Z,1006.44
2018-12-04T04:51:35.483Z,1006.49
2018-12-04T04:52:35.504Z,1006.51
2018-12-04T04:53:35.519Z,1006.54
2018-12-04T04:54:35.536Z,1006.54
2018-12-04T04:55:35.551Z,1006.55
2018-12-04T04:56:35.566Z,1006.57
2018-12-04T04:57:35.581Z,1006.56
2018-12-04T04:58:35.598Z,1006.52
2018-12-04T04:59:35.617Z,1006.57
2018-12-04T05:00:35.636Z,1006.58
2018-12-04T05:01:35.648Z,1006.59
2018-12-04T05:02:35.664Z,1006.62
2018-12-04T05:03:35.676Z,1006.67
2018-12-04T05:04:35.695Z,1006.66
2018-12-04T05:05:35.711Z,1006.65
2018-12-04T05:06:35.726Z,1006.70
2018-12-04T05:07:35.741Z,1006.74
2018-12-04T05:08:35.757Z,1006.76
2018-12-04T05:09:35.774Z,1006.78
2018-12-04T05:10:35.792Z,1006.84
2018-12-04T05:11:35.806Z,1006.87
2018-12-04T05:12:35.824Z,1006.85
2018-12-04T05:13:35.838Z,1006.89
2018-12-04T05:14:35.855Z,1006.84
2018-12-04T05:15:35.870Z,1006.90
2018-12-04T05:16:35.892Z,1006.89
2018-12-04T05:17:35.905Z,1006.93
2018-12-04T05:18:35.929Z,1006.94
2018-12-04T05:19:35.938Z,1007.00
2018-12-04T05:20:35.953Z,1006.99
2018-12-04T05:21:38.411Z,1006.99
2018-12-04T05:22:35.987Z,1007.09
2018-12-04T05:23:35.999Z,1007.09
2018-12-04T05:24:36.015Z,1007.09
2018-12-04T05:25:36.034Z,1007.10
2018-12-04T05:26:36.050Z,1007.16
2018-12-04T05:27:36.063Z,1007.17
2018-12-04T05:28:36.081Z,1007.22
2018-12-04T05:29:36.098Z,1007.28
2018-12-04T05:30:36.113Z,1007.28
2018-12-04T05:31:36.129Z,1007.29
2018-12-04T05:32:36.143Z,1007.33
2018-12-04T05:33:36.160Z,1007.33
2018-12-04T05:34:36.179Z,1007.32
2018-12-04T05:35:36.193Z,1007.32
2018-12-04T05:36:36.210Z,1007.34
2018-12-04T05:37:36.225Z,1007.37
2018-12-04T05:38:36.242Z,1007.37
2018-12-04T05:39:36.255Z,1007.42
2018-12-04T05:40:36.275Z,1007.46
2018-12-04T05:41:36.289Z,1007.43
2018-12-04T05:42:36.303Z,1007.47
2018-12-04T05:43:36.324Z,1007.52
2018-12-04T05:44:36.338Z,1007.53
2018-12-04T05:45:36.353Z,1007.62
2018-12-04T05:46:36.369Z,1007.61
2018-12-04T05:47:36.386Z,1007.63
2018-12-04T05:48:36.402Z,1007.62
2018-12-04T05:49:36.415Z,1007.66
2018-12-04T05:50:36.431Z,1007.67
2018-12-04T05:51:36.448Z,1007.72
2018-12-04T05:52:36.464Z,1007.71
2018-12-04T05:53:36.481Z,1007.73
2018-12-04T05:54:36.498Z,1007.78
2018-12-04T05:55:36.511Z,1007.83
2018-12-04T05:56:36.527Z,1007.83
2018-12-04T05:57:36.546Z,1007.83
2018-12-04T05:58:36.559Z,1007.88
2018-12-04T05:59:36.579Z,1007.92
2018-12-04T06:00:36.591Z,1007.95
2018-12-04T06:01:36.606Z,1007.97
2018-12-04T06:02:36.622Z,1007.96
2018-12-04T06:03:36.639Z,1008.04
2018-12-04T06:04:36.653Z,1008.02
2018-12-04T06:05:36.671Z,1008.04
2018-12-04T06:06:36.690Z,1008.08
2018-12-04T06:07:36.700Z,1008.08
2018-12-04T06:08:36.717Z,1008.09
2018-12-04T06:09:36.735Z,1008.11
2018-12-04T06:10:36.748Z,1008.10
2018-12-04T06:11:36.765Z,1008.15
2018-12-04T06:12:36.827Z,1008.22
2018-12-04T06:13:36.799Z,1008.21
2018-12-04T06:14:36.813Z,1008.26
2018-12-04T06:15:36.827Z,1008.30
2018-12-04T06:16:36.845Z,1008.37
2018-12-04T06:17:36.862Z,1008.33
2018-12-04T06:18:36.875Z,1008.39
2018-12-04T06:19:36.890Z,1008.42
2018-12-04T06:20:36.910Z,1008.41
2018-12-04T06:21:36.924Z,1008.44
2018-12-04T06:22:36.938Z,1008.47
2018-12-04T06:23:36.959Z,1008.47
2018-12-04T06:24:36.975Z,1008.52
2018-12-04T06:25:36.991Z,1008.56
2018-12-04T06:26:37.002Z,1008.57
2018-12-04T06:27:37.018Z,1008.59
2018-12-04T06:28:37.032Z,1008.60
2018-12-04T06:29:37.090Z,1008.61
2018-12-04T06:30:37.064Z,1008.67
2018-12-04T06:31:37.082Z,1008.69
2018-12-04T06:32:37.095Z,1008.73
2018-12-04T06:33:37.111Z,1008.81
2018-12-04T06:34:37.128Z,1008.78
2018-12-04T06:35:37.142Z,1008.79
2018-12-04T06:36:37.160Z,1008.84
2018-12-04T06:37:37.177Z,1008.85
2018-12-04T06:38:37.191Z,1008.89
2018-12-04T06:39:37.206Z,1008.90
2018-12-04T06:40:37.224Z,1008.93
2018-12-04T06:41:37.240Z,1008.92
2018-12-04T06:42:37.258Z,1008.99
2018-12-04T06:43:37.269Z,1008.98
2018-12-04T06:44:37.287Z,1009.01
2018-12-04T06:45:37.303Z,1009.00
2018-12-04T06:46:37.325Z,1008.97
2018-12-04T06:47:37.335Z,1008.98
2018-12-04T06:48:37.348Z,1009.06
2018-12-04T06:49:37.372Z,1009.06
2018-12-04T06:50:37.385Z,1009.13
2018-12-04T06:51:37.396Z,1009.18
2018-12-04T06:52:37.414Z,1009.24
2018-12-04T06:53:37.433Z,1009.22
2018-12-04T06:54:37.448Z,1009.23
2018-12-04T06:55:37.459Z,1009.25
2018-12-04T06:56:37.478Z,1009.28
2018-12-04T06:57:37.496Z,1009.29
2018-12-04T06:58:37.509Z,1009.31
2018-12-04T06:59:37.528Z,1009.37
2018-12-04T07:00:37.541Z,1009.34
2018-12-04T07:01:37.555Z,1009.37
2018-12-04T07:02:37.571Z,1009.42
2018-12-04T07:03:37.588Z,1009.45
2018-12-04T07:04:37.603Z,1009.49
2018-12-04T07:05:37.622Z,1009.52
2018-12-04T07:06:37.633Z,1009.59
2018-12-04T07:07:37.654Z,1009.59
2018-12-04T07:08:37.668Z,1009.69
2018-12-04T07:09:37.687Z,1009.74
2018-12-04T07:10:37.699Z,1009.78
2018-12-04T07:11:37.717Z,1009.84
2018-12-04T07:12:37.728Z,1009.82
2018-12-04T07:13:37.747Z,1009.84
2018-12-04T07:14:37.759Z,1009.87
2018-12-04T07:15:37.780Z,1009.88
2018-12-04T07:16:37.790Z,1009.91
2018-12-04T07:17:37.808Z,1009.96
2018-12-04T07:18:37.822Z,1009.96
2018-12-04T07:19:37.840Z,1010.04
2018-12-04T07:20:37.855Z,1010.01
2018-12-04T07:21:37.869Z,1010.01
2018-12-04T07:22:37.885Z,1010.03
2018-12-04T07:23:37.903Z,1010.03
2018-12-04T07:24:37.917Z,1010.04
2018-12-04T07:25:37.931Z,1010.11
2018-12-04T07:26:37.947Z,1010.10
2018-12-04T07:27:37.964Z,1010.13
2018-12-04T07:28:37.980Z,1010.21
2018-12-04T07:29:37.996Z,1010.19
2018-12-04T07:30:38.009Z,1010.14
2018-12-04T07:31:38.026Z,1010.18
2018-12-04T07:32:38.871Z,1010.25
2018-12-04T07:33:38.061Z,1010.24
2018-12-04T07:34:38.074Z,1010.26
2018-12-04T07:35:38.087Z,1010.24
2018-12-04T07:36:38.103Z,1010.29
2018-12-04T07:37:38.122Z,1010.30
2018-12-04T07:38:38.136Z,1010.32
2018-12-04T07:39:38.149Z,1010.32
2018-12-04T07:40:38.166Z,1010.34
2018-12-04T07:41:38.183Z,1010.32
2018-12-04T07:42:38.197Z,1010.37
2018-12-04T07:43:38.214Z,1010.36
2018-12-04T07:44:38.227Z,1010.39
2018-12-04T07:45:38.245Z,1010.41
2018-12-04T07:46:38.264Z,1010.44
2018-12-04T07:47:38.277Z,1010.43
2018-12-04T07:48:38.290Z,1010.46
2018-12-04T07:49:38.306Z,1010.45
2018-12-04T07:50:38.324Z,1010.52
2018-12-04T07:51:38.337Z,1010.50
2018-12-04T07:52:38.355Z,1010.55
2018-12-04T07:53:38.371Z,1010.56
2018-12-04T07:54:38.387Z,1010.57
2018-12-04T07:55:38.405Z,1010.66
2018-12-04T07:56:38.416Z,1010.67
2018-12-04T07:57:38.433Z,1010.68
2018-12-04T07:58:38.448Z,1010.72
2018-12-04T07:59:38.462Z,1010.73
2018-12-04T08:00:38.481Z,1010.72
2018-12-04T08:01:38.496Z,1010.76
2018-12-04T08:02:38.513Z,1010.77
2018-12-04T08:03:38.526Z,1010.76
2018-12-04T08:04:38.543Z,1010.79
2018-12-04T08:05:38.559Z,1010.84
2018-12-04T08:06:38.577Z,1010.87
2018-12-04T08:07:38.612Z,1010.88
2018-12-04T08:08:38.607Z,1010.91
2018-12-04T08:09:38.621Z,1010.95
2018-12-04T08:10:38.639Z,1010.92
2018-12-04T08:11:38.652Z,1011.01
2018-12-04T08:12:38.670Z,1011.04
2018-12-04T08:13:38.690Z,1011.09
2018-12-04T08:14:38.702Z,1011.11
2018-12-04T08:15:38.713Z,1011.10
2018-12-04T08:16:38.730Z,1011.09
2018-12-04T08:17:38.754Z,1011.17
2018-12-04T08:18:38.765Z,1011.19
2018-12-04T08:19:38.778Z,1011.21
2018-12-04T08:20:38.795Z,1011.25
2018-12-04T08:21:38.839Z,1011.34
2018-12-04T08:22:38.826Z,1011.36
2018-12-04T08:23:38.843Z,1011.38
2018-12-04T08:24:38.860Z,1011.40
2018-12-04T08:25:38.875Z,1011.44
2018-12-04T08:26:38.887Z,1011.47
2018-12-04T08:27:38.905Z,1011.49
2018-12-04T08:28:38.918Z,1011.53
2018-12-04T08:29:38.934Z,1011.54
2018-12-04T08:30:38.950Z,1011.58
2018-12-04T08:31:38.974Z,1011.61
2018-12-04T08:32:38.983Z,1011.65
2018-12-04T08:33:38.997Z,1011.67
2018-12-04T08:34:39.013Z,1011.68
2018-12-04T08:35:39.035Z,1011.68
2018-12-04T08:36:39.044Z,1011.69
2018-12-04T08:37:39.060Z,1011.73
2018-12-04T08:38:39.079Z,1011.74
2018-12-04T08:39:39.093Z,1011.79
2018-12-04T08:40:39.107Z,1011.76
2018-12-04T08:41:39.126Z,1011.74
2018-12-04T08:42:39.139Z,1011.75
2018-12-04T08:43:39.155Z,1011.78
2018-12-04T08:44:39.170Z,1011.79
2018-12-04T08:45:39.189Z,1011.78
2018-12-04T08:46:39.204Z,1011.83
2018-12-04T08:47:39.219Z,1011.91
2018-12-04T08:48:39.237Z,1011.91
2018-12-04T08:49:39.250Z,1011.96
2018-12-04T08:50:39.267Z,1011.96
2018-12-04T08:51:39.285Z,1011.97
2018-12-04T08:52:39.298Z,1011.97
2018-12-04T08:53:39.313Z,1012.03
2018-12-04T08:54:39.332Z,1011.97
2018-12-04T08:55:39.347Z,1012.00
2018-12-04T08:56:39.378Z,1012.03
2018-12-04T08:57:39.376Z,1012.03
2018-12-04T08:58:39.394Z,1012.03
2018-12-04T08:59:39.407Z,1012.09
2018-12-04T09:00:39.425Z,1012.12
2018-12-04T09:01:39.445Z,1012.16
2018-12-04T09:02:39.455Z,1012.21
2018-12-04T09:03:39.473Z,1012.23
2018-12-04T09:04:39.593Z,1012.24
2018-12-04T09:05:39.505Z,1012.25
2018-12-04T09:06:39.523Z,1012.27
2018-12-04T09:07:39.538Z,1012.29
2018-12-04T09:08:39.583Z,1012.35
2018-12-04T09:09:39.567Z,1012.35
2018-12-04T09:10:39.583Z,1012.42
2018-12-04T09:11:39.598Z,1012.42
2018-12-04T09:12:39.618Z,1012.47
2018-12-04T09:13:39.630Z,1012.43
2018-12-04T09:14:39.647Z,1012.46
2018-12-04T09:15:39.670Z,1012.55
2018-12-04T09:16:39.678Z,1012.55
2018-12-04T09:17:39.698Z,1012.57
2018-12-04T09:18:39.721Z,1012.60
2018-12-04T09:19:39.728Z,1012.66
2018-12-04T09:20:39.766Z,1012.68
2018-12-04T09:21:39.788Z,1012.68
2018-12-04T09:22:39.812Z,1012.65
2018-12-04T09:23:39.822Z,1012.71
2018-12-04T09:24:39.833Z,1012.77
2018-12-04T09:25:39.868Z,1012.73
2018-12-04T09:26:39.862Z,1012.78
2018-12-04T09:27:39.875Z,1012.80
2018-12-04T09:28:39.872Z,1012.78
2018-12-04T09:29:39.908Z,1012.80
2018-12-04T09:30:39.904Z,1012.81
2018-12-04T09:31:39.919Z,1012.90
2018-12-04T09:32:39.938Z,1012.91
2018-12-04T09:33:40.033Z,1012.90
2018-12-04T09:34:39.966Z,1012.93
2018-12-04T09:35:39.981Z,1012.94
2018-12-04T09:36:39.998Z,1013.02
2018-12-04T09:37:40.014Z,1013.06
2018-12-04T09:38:40.035Z,1013.09
2018-12-04T09:39:40.049Z,1013.11
2018-12-04T09:40:40.065Z,1013.15
2018-12-04T09:41:40.078Z,1013.20
2018-12-04T09:42:40.095Z,1013.27
2018-12-04T09:43:40.112Z,1013.27
2018-12-04T09:44:40.127Z,1013.30
2018-12-04T09:45:40.143Z,1013.30
2018-12-04T09:46:40.162Z,1013.29
2018-12-04T09:47:40.179Z,1013.31
2018-12-04T09:48:40.191Z,1013.32
2018-12-04T09:49:40.208Z,1013.36
2018-12-04T09:50:40.228Z,1013.29
2018-12-04T09:51:40.242Z,1013.37
2018-12-04T09:52:40.259Z,1013.39
2018-12-04T09:53:40.276Z,1013.46
2018-12-04T09:54:40.289Z,1013.46
2018-12-04T09:55:40.309Z,1013.47
2018-12-04T09:56:40.326Z,1013.48
2018-12-04T09:57:40.338Z,1013.48
2018-12-04T09:58:40.355Z,1013.45
2018-12-04T09:59:40.371Z,1013.50
2018-12-04T10:00:40.393Z,1013.49
2018-12-04T10:01:40.408Z,1013.52
2018-12-04T10:02:40.423Z,1013.50
2018-12-04T10:03:40.440Z,1013.58
2018-12-04T10:04:40.713Z,1013.58
2018-12-04T10:05:40.480Z,1013.61
2018-12-04T10:06:40.490Z,1013.58
2018-12-04T10:07:40.507Z,1013.55
2018-12-04T10:08:40.525Z,1013.56
2018-12-04T10:09:40.536Z,1013.59
2018-12-04T10:10:40.559Z,1013.57
2018-12-04T10:11:40.574Z,1013.64
2018-12-04T10:12:40.666Z,1013.62
2018-12-04T10:13:40.605Z,1013.64
2018-12-04T10:14:40.618Z,1013.63
2018-12-04T10:15:40.636Z,1013.64
2018-12-04T10:16:41.296Z,1013.63
2018-12-04T10:17:40.669Z,1013.66
2018-12-04T10:18:40.771Z,1013.68
2018-12-04T10:19:40.701Z,1013.70
2018-12-04T10:20:40.719Z,1013.72
2018-12-04T10:21:40.736Z,1013.76
2018-12-04T10:22:40.761Z,1013.71
2018-12-04T10:23:40.764Z,1013.75
2018-12-04T10:24:40.785Z,1013.75
2018-12-04T10:25:40.798Z,1013.76
2018-12-04T10:26:40.816Z,1013.81
2018-12-04T10:27:40.891Z,1013.79
2018-12-04T10:28:40.847Z,1013.80
2018-12-04T10:29:40.865Z,1013.82
2018-12-04T10:30:40.882Z,1013.83
2018-12-04T10:31:40.992Z,1013.82
2018-12-04T10:32:41.011Z,1013.82
2018-12-04T10:33:40.930Z,1013.83
2018-12-04T10:34:40.953Z,1013.85
2018-12-04T10:35:40.966Z,1013.86
2018-12-04T10:36:40.979Z,1013.88
2018-12-04T10:37:41.092Z,1013.89
2018-12-04T10:38:41.012Z,1013.90
2018-12-04T10:39:41.031Z,1013.89
2018-12-04T10:40:41.246Z,1013.91
2018-12-04T10:41:41.063Z,1013.95
2018-12-04T10:42:41.197Z,1013.99
2018-12-04T10:43:41.099Z,1014.00
2018-12-04T10:44:41.113Z,1013.99
2018-12-04T10:45:41.127Z,1014.00
2018-12-04T10:46:41.145Z,1014.01
2018-12-04T10:47:41.338Z,1014.03
2018-12-04T10:48:41.178Z,1014.03
2018-12-04T10:49:41.200Z,1014.06
2018-12-04T10:50:41.208Z,1014.09
2018-12-04T10:51:41.228Z,1014.10
2018-12-04T10:52:41.344Z,1014.10
2018-12-04T10:53:41.258Z,1014.18
2018-12-04T10:54:41.279Z,1014.19
2018-12-04T10:55:41.290Z,1014.11
2018-12-04T10:56:41.309Z,1014.13
2018-12-04T10:57:41.379Z,1014.13
2018-12-04T10:58:41.344Z,1014.10
2018-12-04T10:59:41.358Z,1014.13
2018-12-04T11:00:41.374Z,1014.20
2018-12-04T11:01:41.392Z,1014.22
2018-12-04T11:02:41.488Z,1014.20
2018-12-04T11:03:41.423Z,1014.26
2018-12-04T11:04:41.440Z,1014.22
2018-12-04T11:05:41.462Z,1014.20
2018-12-04T11:06:41.474Z,1014.21
2018-12-04T11:07:41.533Z,1014.22
2018-12-04T11:08:41.516Z,1014.24
2018-12-04T11:09:41.569Z,1014.23
2018-12-04T11:10:41.541Z,1014.30
2018-12-04T11:11:41.907Z,1014.29
2018-12-04T11:12:41.647Z,1014.32
2018-12-04T11:13:41.595Z,1014.30
2018-12-04T11:14:41.607Z,1014.32
2018-12-04T11:15:41.625Z,1014.26
2018-12-04T11:16:41.642Z,1014.29
2018-12-04T11:17:41.802Z,1014.30
2018-12-04T11:18:41.674Z,1014.35
2018-12-04T11:19:41.695Z,1014.32
2018-12-04T11:20:41.707Z,1014.40
2018-12-04T11:21:41.726Z,1014.40
2018-12-04T11:22:41.788Z,1014.44
2018-12-04T11:23:41.759Z,1014.45
2018-12-04T11:24:41.786Z,1014.48
2018-12-04T11:25:41.790Z,1014.53
2018-12-04T11:26:41.809Z,1014.54
2018-12-04T11:27:41.939Z,1014.51
2018-12-04T11:28:41.842Z,1014.54
2018-12-04T11:29:41.858Z,1014.48
2018-12-04T11:30:41.872Z,1014.50
2018-12-04T11:31:41.889Z,1014.48
2018-12-04T11:32:42.017Z,1014.53
2018-12-04T11:33:41.922Z,1014.53
2018-12-04T11:34:41.941Z,1014.52
2018-12-04T11:35:41.958Z,1014.55
2018-12-04T11:36:41.974Z,1014.54
2018-12-04T11:37:42.034Z,1014.55
2018-12-04T11:38:42.010Z,1014.58
2018-12-04T11:39:42.022Z,1014.60
2018-12-04T11:40:42.043Z,1014.63
2018-12-04T11:41:42.057Z,1014.68
2018-12-04T11:42:42.128Z,1014.69
2018-12-04T11:43:42.089Z,1014.67
2018-12-04T11:44:42.464Z,1014.73
2018-12-04T11:45:42.139Z,1014.71
2018-12-04T11:46:42.493Z,1014.80
2018-12-04T11:47:42.227Z,1014.79
2018-12-04T11:48:42.172Z,1014.72
2018-12-04T11:49:42.191Z,1014.75
2018-12-04T11:50:42.210Z,1014.74
2018-12-04T11:51:42.222Z,1014.72
2018-12-04T11:52:42.319Z,1014.75
2018-12-04T11:53:42.259Z,1014.85
2018-12-04T11:54:42.278Z,1014.80
2018-12-04T11:55:42.289Z,1014.83
2018-12-04T11:56:42.306Z,1014.90
2018-12-04T11:57:42.354Z,1014.84
2018-12-04T11:58:42.339Z,1014.86
2018-12-04T11:59:42.359Z,1014.87
2018-12-04T12:00:42.377Z,1014.86
2018-12-04T12:01:42.389Z,1014.90
2018-12-04T12:02:42.407Z,1014.84
2018-12-04T12:03:42.425Z,1014.89
2018-12-04T12:04:42.777Z,1014.91
2018-12-04T12:05:42.462Z,1014.94
2018-12-04T12:06:42.475Z,1014.95